Time;durP1;ratioP1;P1;durP2;ratioP2;P2;SDS_P1;SDS_P2;PMS_P1;PMS_P2;Temp;Humidity;BMP_temperature;BMP_pressure;BME280_temperature;BME280_humidity;BME280_pressure;Samples;Min_cycle;Max_cycle;Signal;HPM_P1;HPM_P2
2022/09/18 00:01:23;;;;;;;1.97;1.63;;;11.30;99.90;;;;;;5002318;28;20437;-80
2022/09/18 00:04:10;;;;;;;2.00;1.40;;;11.20;99.90;;;;;;5001725;28;20397;-80
2022/09/18 00:06:55;;;;;;;6.60;1.57;;;11.20;99.90;;;;;;5014741;28;20492;-80
2022/09/18 00:09:42;;;;;;;4.07;1.50;;;11.10;99.90;;;;;;5015605;28;20845;-80
2022/09/18 00:12:27;;;;;;;4.10;2.67;;;11.00;99.90;;;;;;5016002;28;20401;-80
2022/09/18 00:15:11;;;;;;;4.70;1.60;;;11.00;99.90;;;;;;5001278;28;20433;-80
2022/09/18 00:17:55;;;;;;;7.27;1.70;;;11.10;99.90;;;;;;4987126;28;20487;-80
2022/09/18 00:20:41;;;;;;;7.60;1.93;;;11.10;99.90;;;;;;5000881;28;20452;-80
2022/09/18 00:23:25;;;;;;;2.70;1.53;;;11.10;99.90;;;;;;5040895;28;20399;-80
2022/09/18 00:26:11;;;;;;;1.87;1.57;;;11.10;99.90;;;;;;5055949;28;20439;-80
2022/09/18 00:28:57;;;;;;;3.17;1.57;;;11.20;99.90;;;;;;5071159;28;20455;-81
2022/09/18 00:31:42;;;;;;;2.17;1.50;;;11.10;99.90;;;;;;5081379;28;20385;-80
2022/09/18 00:34:27;;;;;;;1.60;1.50;;;11.10;99.90;;;;;;5096198;28;20413;-80
2022/09/18 00:37:12;;;;;;;7.17;1.90;;;11.20;99.90;;;;;;5075287;28;20449;-80
2022/09/18 00:39:56;;;;;;;1.60;1.47;;;11.20;99.90;;;;;;5066441;28;20425;-77
2022/09/18 00:42:41;;;;;;;4.50;1.77;;;11.10;99.90;;;;;;5086890;28;20525;-78
2022/09/18 00:45:26;;;;;;;2.40;2.00;;;11.10;99.90;;;;;;5072873;28;20461;-76
2022/09/18 00:48:10;;;;;;;2.23;1.77;;;11.10;99.90;;;;;;5070732;28;20423;-77
2022/09/18 00:50:55;;;;;;;3.03;1.60;;;11.20;99.90;;;;;;5063900;28;20460;-80
2022/09/18 00:53:44;;;;;;;6.73;1.73;;;11.10;99.90;;;;;;5076070;28;20440;-80
2022/09/18 00:56:29;;;;;;;3.00;1.50;;;11.10;99.90;;;;;;5047169;28;20461;-80
2022/09/18 00:59:26;;;;;;;2.37;2.17;;;11.20;99.90;;;;;;5040692;28;20414;-80
2022/09/18 01:02:11;;;;;;;5.50;2.33;;;11.20;99.90;;;;;;5040222;28;20788;-80
2022/09/18 01:04:56;;;;;;;1.97;1.60;;;11.20;99.90;;;;;;5039218;28;20461;-80
2022/09/18 01:07:57;;;;;;;5.00;1.83;;;11.30;99.90;;;;;;5039681;28;20491;-80
2022/09/18 01:11:03;;;;;;;3.77;1.47;;;11.30;99.90;;;;;;5026185;28;20379;-80
2022/09/18 01:14:06;;;;;;;2.03;1.80;;;11.30;99.90;;;;;;5042037;28;20403;-77
2022/09/18 01:17:14;;;;;;;2.90;2.13;;;11.40;99.90;;;;;;5044844;28;20383;-81
2022/09/18 01:20:23;;;;;;;4.40;2.63;;;11.40;99.90;;;;;;5048904;28;20457;-77
2022/09/18 01:23:40;;;;;;;4.63;1.50;;;11.40;99.90;;;;;;5063128;28;20406;-78
2022/09/18 01:26:48;;;;;;;3.33;1.47;;;11.40;99.90;;;;;;5048245;28;20529;-80
2022/09/18 01:29:58;;;;;;;6.47;2.17;;;11.40;99.90;;;;;;5024956;28;20440;-80
2022/09/18 01:32:56;;;;;;;5.63;1.90;;;11.30;99.90;;;;;;5045735;28;20402;-80
2022/09/18 01:35:48;;;;;;;2.80;1.63;;;11.30;99.90;;;;;;5040056;28;20411;-80
2022/09/18 01:38:42;;;;;;;3.83;1.90;;;11.20;99.90;;;;;;5013088;28;20426;-80
2022/09/18 01:41:29;;;;;;;1.80;1.50;;;11.30;99.90;;;;;;5021104;28;20515;-80
2022/09/18 01:44:19;;;;;;;3.90;1.73;;;11.30;99.90;;;;;;4992766;28;20403;-80
2022/09/18 01:47:09;;;;;;;7.57;2.40;;;11.20;99.90;;;;;;5020014;28;20447;-80
2022/09/18 01:49:58;;;;;;;3.03;1.90;;;11.10;99.90;;;;;;5020323;28;20424;-80
2022/09/18 01:52:50;;;;;;;6.40;1.57;;;11.20;99.90;;;;;;5039315;28;20860;-80
2022/09/18 01:55:37;;;;;;;5.23;1.83;;;11.10;99.90;;;;;;5022852;28;20513;-76
2022/09/18 01:58:24;;;;;;;1.73;1.63;;;11.20;99.90;;;;;;5023799;28;20387;-77
2022/09/18 02:01:14;;;;;;;3.67;2.17;;;11.20;99.90;;;;;;5049856;28;20399;-76
2022/09/18 02:04:05;;;;;;;3.13;1.87;;;11.10;99.90;;;;;;4995402;28;20413;-77
2022/09/18 02:06:59;;;;;;;4.23;1.80;;;11.20;99.90;;;;;;5009205;28;20463;-76
2022/09/18 02:09:44;;;;;;;1.53;1.43;;;11.20;99.90;;;;;;5008980;28;20496;-77
2022/09/18 02:12:32;;;;;;;1.70;1.60;;;11.20;99.90;;;;;;5021562;28;20403;-77
2022/09/18 02:15:18;;;;;;;1.90;1.67;;;11.20;99.90;;;;;;5014602;28;20388;-77
2022/09/18 02:18:09;;;;;;;6.53;2.03;;;11.20;99.90;;;;;;5030994;28;20406;-77
2022/09/18 02:20:55;;;;;;;2.67;2.20;;;11.20;99.90;;;;;;5032732;28;20564;-77
2022/09/18 02:23:41;;;;;;;3.97;2.00;;;11.30;99.90;;;;;;5019106;28;20403;-77
2022/09/18 02:26:26;;;;;;;1.53;1.40;;;11.30;99.90;;;;;;5030694;28;20451;-77
2022/09/18 02:29:13;;;;;;;4.43;2.10;;;11.30;99.90;;;;;;5045510;28;20402;-78
2022/09/18 02:32:01;;;;;;;4.90;1.80;;;11.40;99.90;;;;;;5022221;28;20472;-80
2022/09/18 02:34:45;;;;;;;4.70;2.20;;;11.40;99.90;;;;;;5035657;28;20406;-79
2022/09/18 02:37:51;;;;;;;4.40;2.40;;;11.50;99.90;;;;;;5063948;28;20405;-80
2022/09/18 02:40:51;;;;;;;3.10;1.90;;;11.50;99.90;;;;;;5063868;28;20402;-80
2022/09/18 02:43:49;;;;;;;3.37;2.17;;;11.60;99.90;;;;;;5064165;28;20414;-80
2022/09/18 02:46:54;;;;;;;2.20;2.00;;;11.40;99.90;;;;;;5049429;28;20480;-80
2022/09/18 02:50:12;;;;;;;1.93;1.80;;;11.40;99.90;;;;;;5044538;28;20398;-80
2022/09/18 02:53:06;;;;;;;3.23;1.90;;;11.40;99.90;;;;;;5052138;28;20460;-80
2022/09/18 02:55:58;;;;;;;2.33;2.13;;;11.50;99.90;;;;;;5051645;28;20409;-80
2022/09/18 02:58:51;;;;;;;8.50;2.50;;;11.50;99.90;;;;;;5004753;28;20412;-80
2022/09/18 03:01:40;;;;;;;4.43;1.97;;;11.50;99.90;;;;;;5011924;28;20400;-80
2022/09/18 03:04:27;;;;;;;7.90;2.37;;;11.40;99.90;;;;;;5015595;28;20431;-80
2022/09/18 03:07:13;;;;;;;3.10;1.77;;;11.50;99.90;;;;;;5041665;28;20531;-80
2022/09/18 03:09:58;;;;;;;11.33;2.70;;;11.50;99.90;;;;;;5025001;28;20411;-80
2022/09/18 03:12:43;;;;;;;2.40;2.20;;;11.40;99.90;;;;;;5039847;28;20416;-79
2022/09/18 03:15:27;;;;;;;2.17;1.80;;;11.40;99.90;;;;;;5025017;28;20471;-80
2022/09/18 03:18:13;;;;;;;4.57;2.23;;;11.40;99.90;;;;;;5023187;28;20404;-79
2022/09/18 03:20:58;;;;;;;1.80;1.63;;;11.50;99.90;;;;;;5002638;28;20460;-80
2022/09/18 03:23:44;;;;;;;5.63;3.20;;;11.50;99.90;;;;;;4991131;28;20429;-80
2022/09/18 03:26:29;;;;;;;2.03;1.83;;;11.40;99.90;;;;;;5003687;28;20988;-80
2022/09/18 03:29:13;;;;;;;2.47;2.27;;;11.40;99.90;;;;;;5022195;28;20483;-80
2022/09/18 03:31:59;;;;;;;4.60;2.37;;;11.40;99.90;;;;;;5032416;28;20403;-80
2022/09/18 03:34:45;;;;;;;2.90;1.87;;;11.50;99.90;;;;;;5016696;28;20394;-80
2022/09/18 03:37:31;;;;;;;4.50;2.33;;;11.50;99.90;;;;;;5047371;28;20423;-79
2022/09/18 03:40:15;;;;;;;3.80;2.10;;;11.40;99.90;;;;;;5048782;28;20395;-80
2022/09/18 03:42:59;;;;;;;5.33;3.03;;;11.40;99.90;;;;;;5015446;28;20403;-80
2022/09/18 03:45:45;;;;;;;2.00;1.80;;;11.50;99.90;;;;;;5079272;28;20517;-80
2022/09/18 03:48:30;;;;;;;2.63;2.00;;;11.50;99.90;;;;;;5083178;28;20396;-78
2022/09/18 03:51:17;;;;;;;2.07;1.87;;;11.50;99.90;;;;;;5081486;28;20420;-76
2022/09/18 03:54:02;;;;;;;3.07;2.20;;;11.50;99.90;;;;;;5108685;28;20380;-77
2022/09/18 03:56:47;;;;;;;4.67;2.33;;;11.50;99.90;;;;;;5109942;28;20436;-76
2022/09/18 03:59:33;;;;;;;2.73;2.50;;;11.60;99.90;;;;;;5056159;28;20404;-80
2022/09/18 04:02:21;;;;;;;2.53;2.10;;;11.60;99.90;;;;;;5039569;28;20423;-80
2022/09/18 04:05:06;;;;;;;4.17;2.10;;;11.60;99.90;;;;;;5053622;28;20409;-80
2022/09/18 04:07:50;;;;;;;3.13;1.77;;;11.70;99.90;;;;;;5067781;28;20464;-80
2022/09/18 04:10:36;;;;;;;2.53;1.83;;;11.60;99.90;;;;;;5080738;28;20380;-80
2022/09/18 04:13:21;;;;;;;3.40;1.50;;;11.60;99.90;;;;;;5066726;28;20393;-80
2022/09/18 04:16:06;;;;;;;2.27;2.10;;;11.60;99.90;;;;;;5039678;28;20382;-80
2022/09/18 04:18:54;;;;;;;3.20;2.50;;;11.60;99.90;;;;;;5042095;28;20532;-80
2022/09/18 04:21:39;;;;;;;1.67;1.57;;;11.60;99.90;;;;;;5075141;28;20396;-80
2022/09/18 04:24:26;;;;;;;2.50;2.30;;;11.60;99.90;;;;;;5081510;28;20411;-80
2022/09/18 04:27:12;;;;;;;2.83;1.67;;;11.50;99.90;;;;;;5082919;28;20457;-80
2022/09/18 04:29:57;;;;;;;3.17;1.87;;;11.50;99.90;;;;;;5068217;28;20618;-79
2022/09/18 04:32:44;;;;;;;3.20;1.83;;;11.50;99.90;;;;;;5091368;28;20385;-77
2022/09/18 04:35:30;;;;;;;2.40;1.63;;;11.50;99.90;;;;;;5065758;28;20523;-77
2022/09/18 04:38:16;;;;;;;2.13;1.93;;;11.50;99.90;;;;;;5080720;28;20427;-75
2022/09/18 04:41:01;;;;;;;2.07;1.63;;;11.50;99.90;;;;;;5079816;28;20457;-77
2022/09/18 04:43:46;;;;;;;3.50;2.00;;;11.60;99.90;;;;;;5079813;28;20393;-76
2022/09/18 04:46:32;;;;;;;2.20;2.00;;;11.50;99.90;;;;;;5065713;28;20448;-75
2022/09/18 04:49:17;;;;;;;2.90;1.77;;;11.50;99.90;;;;;;5039661;28;20501;-77
2022/09/18 04:52:03;;;;;;;2.90;2.57;;;11.40;99.90;;;;;;5006578;28;20395;-76
2022/09/18 04:54:47;;;;;;;8.00;2.17;;;11.50;99.90;;;;;;5032431;28;20395;-77
2022/09/18 04:57:33;;;;;;;2.27;1.90;;;11.50;99.90;;;;;;5020292;28;20431;-76
2022/09/18 05:00:18;;;;;;;2.60;1.63;;;11.60;99.90;;;;;;5006910;28;20419;-77
2022/09/18 05:03:04;;;;;;;2.17;1.70;;;11.50;99.90;;;;;;5028491;28;20504;-80
2022/09/18 05:05:50;;;;;;;1.53;1.43;;;11.40;99.90;;;;;;4993383;28;21009;-81
2022/09/18 05:08:36;;;;;;;1.50;1.40;;;11.40;99.90;;;;;;4965664;28;20444;-80
2022/09/18 05:11:21;;;;;;;2.43;1.77;;;11.50;99.90;;;;;;5006926;28;20420;-80
2022/09/18 05:14:06;;;;;;;2.53;2.00;;;11.60;99.90;;;;;;4992525;28;20846;-80
2022/09/18 05:16:51;;;;;;;6.10;2.37;;;11.60;99.90;;;;;;5028335;28;20505;-80
2022/09/18 05:19:36;;;;;;;4.47;2.40;;;11.70;99.90;;;;;;5061013;28;20539;-80
2022/09/18 05:22:20;;;;;;;2.63;1.70;;;11.70;99.90;;;;;;5032980;28;20429;-80
2022/09/18 05:25:08;;;;;;;6.60;2.13;;;11.80;99.90;;;;;;5019801;28;20422;-80
2022/09/18 05:27:55;;;;;;;1.80;1.70;;;11.80;99.90;;;;;;5041505;28;20391;-80
2022/09/18 05:30:39;;;;;;;3.17;2.97;;;11.80;99.90;;;;;;5021552;28;20407;-80
2022/09/18 05:33:25;;;;;;;3.73;1.73;;;11.70;99.90;;;;;;5012918;28;20554;-80
2022/09/18 05:36:09;;;;;;;2.77;1.60;;;11.90;99.90;;;;;;5041527;28;20507;-80
2022/09/18 05:38:54;;;;;;;3.57;2.00;;;11.80;99.90;;;;;;5021704;28;20396;-79
2022/09/18 05:41:39;;;;;;;5.10;2.10;;;11.80;99.90;;;;;;4990734;28;20404;-79
2022/09/18 05:44:23;;;;;;;3.73;2.03;;;11.80;99.90;;;;;;4968458;28;20409;-80
2022/09/18 05:47:08;;;;;;;4.67;1.90;;;11.80;99.90;;;;;;4954647;28;20456;-79
2022/09/18 05:49:53;;;;;;;3.20;1.63;;;11.80;99.90;;;;;;4936244;29;20390;-80
2022/09/18 05:52:37;;;;;;;9.70;2.20;;;11.90;99.90;;;;;;4970246;28;20407;-80
2022/09/18 05:55:22;;;;;;;2.23;1.87;;;11.90;99.90;;;;;;5024162;28;20411;-80
2022/09/18 05:58:13;;;;;;;2.00;1.90;;;11.80;99.90;;;;;;5023477;28;20457;-80
2022/09/18 06:01:03;;;;;;;4.07;2.30;;;11.80;99.90;;;;;;5050488;28;20409;-80
2022/09/18 06:03:50;;;;;;;2.07;1.87;;;11.90;99.90;;;;;;5038497;28;20405;-80
2022/09/18 06:06:35;;;;;;;1.83;1.50;;;11.90;99.90;;;;;;5050635;28;20520;-80
2022/09/18 06:09:20;;;;;;;8.20;1.87;;;11.90;99.90;;;;;;5035322;28;20402;-79
2022/09/18 06:12:08;;;;;;;2.40;2.20;;;11.90;99.90;;;;;;5067825;28;20396;-80
2022/09/18 06:14:53;;;;;;;3.13;2.20;;;11.80;99.90;;;;;;5080126;28;20426;-76
2022/09/18 06:17:38;;;;;;;5.37;1.93;;;11.80;99.90;;;;;;5078471;28;20419;-79
2022/09/18 06:20:23;;;;;;;5.80;2.20;;;11.80;99.90;;;;;;5078348;28;20488;-79
2022/09/18 06:23:07;;;;;;;4.63;2.03;;;11.70;99.90;;;;;;5078175;28;20394;-79
2022/09/18 06:26:01;;;;;;;1.60;1.50;;;11.70;99.90;;;;;;5064498;28;20457;-80
2022/09/18 06:28:50;;;;;;;4.23;1.87;;;11.70;99.90;;;;;;5064565;28;20461;-81
2022/09/18 06:31:35;;;;;;;4.17;1.90;;;11.60;99.90;;;;;;5064721;28;20436;-80
2022/09/18 06:34:20;;;;;;;2.10;2.00;;;11.70;99.90;;;;;;5065300;28;20478;-80
2022/09/18 06:37:09;;;;;;;4.63;1.40;;;11.70;99.90;;;;;;5078692;28;20393;-79
2022/09/18 06:39:58;;;;;;;2.33;1.50;;;11.60;99.90;;;;;;5064646;28;20409;-80
2022/09/18 06:42:45;;;;;;;2.73;1.50;;;11.40;99.90;;;;;;5063829;28;20446;-81
2022/09/18 06:45:31;;;;;;;2.77;1.50;;;11.50;99.90;;;;;;5064398;28;20437;-81
2022/09/18 06:48:18;;;;;;;4.20;1.77;;;11.50;99.90;;;;;;5077979;28;20402;-81
2022/09/18 06:51:03;;;;;;;2.10;1.90;;;11.50;99.90;;;;;;5079781;28;20520;-80
2022/09/18 06:53:49;;;;;;;1.70;1.60;;;11.60;99.90;;;;;;5076206;28;20392;-80
2022/09/18 06:56:34;;;;;;;1.17;1.07;;;11.60;99.90;;;;;;5062453;28;20791;-80
2022/09/18 06:59:18;;;;;;;4.63;1.80;;;11.60;99.90;;;;;;5090437;28;20391;-80
2022/09/18 07:02:05;;;;;;;7.00;1.90;;;11.70;99.90;;;;;;5090474;28;20954;-81
2022/09/18 07:04:50;;;;;;;2.20;1.90;;;11.70;99.90;;;;;;5086253;28;20397;-80
2022/09/18 07:07:37;;;;;;;1.50;1.37;;;11.70;99.90;;;;;;5083671;28;20499;-80
2022/09/18 07:10:23;;;;;;;2.17;2.00;;;11.70;99.90;;;;;;5068777;28;20450;-80
2022/09/18 07:13:08;;;;;;;1.50;1.40;;;11.70;99.90;;;;;;5083550;28;20451;-80
2022/09/18 07:15:53;;;;;;;1.80;1.40;;;11.70;99.90;;;;;;5097791;28;20407;-80
2022/09/18 07:18:42;;;;;;;1.93;1.70;;;11.70;99.90;;;;;;5068948;28;20466;-78
2022/09/18 07:21:26;;;;;;;1.30;1.20;;;11.60;99.90;;;;;;5043315;28;20503;-80
2022/09/18 07:24:11;;;;;;;2.17;1.90;;;11.60;99.90;;;;;;5042992;28;20383;-80
2022/09/18 07:26:57;;;;;;;2.87;1.57;;;11.70;99.90;;;;;;5027976;28;20453;-80
2022/09/18 07:29:41;;;;;;;2.93;1.60;;;11.70;99.90;;;;;;5028524;28;20394;-80
2022/09/18 07:32:28;;;;;;;1.60;1.50;;;11.80;99.90;;;;;;5044531;28;20722;-80
2022/09/18 07:35:14;;;;;;;2.03;1.80;;;11.80;99.90;;;;;;5052711;28;20768;-80
2022/09/18 07:38:01;;;;;;;4.23;1.80;;;11.90;99.90;;;;;;5054266;28;20402;-79
2022/09/18 07:40:46;;;;;;;11.90;2.00;;;11.90;99.90;;;;;;5037490;28;20437;-80
2022/09/18 07:43:31;;;;;;;2.87;1.73;;;11.70;99.90;;;;;;5064595;28;20445;-80
2022/09/18 07:46:17;;;;;;;2.33;1.80;;;11.90;99.90;;;;;;5030793;28;20466;-79
2022/09/18 07:49:02;;;;;;;1.80;1.70;;;12.00;99.90;;;;;;5044017;28;20454;-80
2022/09/18 07:51:46;;;;;;;1.77;1.60;;;11.90;99.90;;;;;;5064590;28;20401;-79
2022/09/18 07:54:31;;;;;;;1.40;1.30;;;12.00;99.90;;;;;;5049833;28;20557;-78
2022/09/18 07:57:15;;;;;;;3.47;2.00;;;12.10;99.90;;;;;;5063729;28;20498;-80
2022/09/18 08:00:01;;;;;;;5.63;1.60;;;12.20;99.90;;;;;;5021398;28;20410;-80
2022/09/18 08:02:45;;;;;;;1.97;1.40;;;12.20;99.90;;;;;;5062655;28;20386;-80
2022/09/18 08:05:31;;;;;;;5.33;1.70;;;12.30;99.90;;;;;;5078190;28;20436;-79
2022/09/18 08:08:38;;;;;;;3.00;1.80;;;12.40;99.90;;;;;;5090763;28;20395;-80
2022/09/18 08:11:22;;;;;;;1.63;1.53;;;12.30;99.90;;;;;;5104247;28;20435;-80
2022/09/18 08:14:07;;;;;;;3.93;1.80;;;12.00;99.90;;;;;;5069444;28;20462;-80
2022/09/18 08:16:52;;;;;;;1.50;1.40;;;11.90;99.90;;;;;;5043326;28;20406;-80
2022/09/18 08:19:36;;;;;;;1.60;1.50;;;12.10;99.90;;;;;;5056640;28;20486;-80
2022/09/18 08:22:22;;;;;;;3.37;1.60;;;12.20;99.90;;;;;;5070605;28;20411;-80
2022/09/18 08:25:07;;;;;;;1.80;1.70;;;12.10;99.90;;;;;;5063156;28;20465;-80
2022/09/18 08:27:52;;;;;;;3.63;2.00;;;12.10;99.90;;;;;;5062033;28;20426;-79
2022/09/18 08:30:38;;;;;;;3.43;2.07;;;12.20;99.90;;;;;;5063131;28;20398;-81
2022/09/18 08:33:23;;;;;;;2.57;2.37;;;12.20;99.90;;;;;;5077134;28;20402;-80
2022/09/18 08:36:08;;;;;;;2.50;2.30;;;12.00;99.90;;;;;;5057766;28;20460;-79
2022/09/18 08:38:54;;;;;;;1.90;1.80;;;12.00;99.90;;;;;;5057237;28;20429;-81
2022/09/18 08:42:12;;;;;;;8.03;2.83;;;11.90;99.90;;;;;;5060807;28;20441;-81
2022/09/18 08:45:55;;;;;;;2.00;1.90;;;12.00;99.90;;;;;;5040518;28;20798;-80
2022/09/18 08:49:15;;;;;;;2.63;1.60;;;12.10;99.90;;;;;;4986673;28;20404;-79
2022/09/18 08:52:10;;;;;;;2.90;2.03;;;12.30;99.90;;;;;;5025721;28;20482;-78
2022/09/18 08:55:03;;;;;;;4.87;2.40;;;12.30;99.90;;;;;;5008318;28;20398;-79
2022/09/18 08:57:55;;;;;;;1.83;1.60;;;12.20;99.90;;;;;;5039816;28;20793;-81
2022/09/18 09:00:43;;;;;;;3.20;2.07;;;12.10;99.90;;;;;;5046872;28;20494;-81
2022/09/18 09:03:50;;;;;;;2.23;1.83;;;12.20;99.90;;;;;;5033699;28;20390;-80
2022/09/18 09:07:00;;;;;;;5.30;1.60;;;12.20;99.90;;;;;;5041821;28;20442;-80
2022/09/18 09:10:10;;;;;;;1.60;1.50;;;12.30;99.90;;;;;;5041358;28;20403;-80
2022/09/18 09:13:29;;;;;;;1.47;1.37;;;12.40;99.90;;;;;;5021634;28;20400;-80
2022/09/18 09:16:30;;;;;;;1.40;1.30;;;12.40;99.90;;;;;;5008503;28;20412;-81
2022/09/18 09:19:36;;;;;;;3.93;1.60;;;12.30;99.90;;;;;;4995973;28;20467;-81
2022/09/18 09:22:37;;;;;;;2.33;1.67;;;12.30;99.90;;;;;;4990249;28;20448;-80
2022/09/18 09:25:39;;;;;;;1.60;1.50;;;12.60;99.90;;;;;;4963012;29;20406;-80
2022/09/18 09:28:33;;;;;;;1.43;1.30;;;12.50;99.90;;;;;;4951600;29;20585;-80
2022/09/18 09:31:23;;;;;;;1.60;1.50;;;12.70;99.90;;;;;;4977320;28;20427;-81
2022/09/18 09:34:24;;;;;;;1.33;1.23;;;12.80;99.90;;;;;;4980230;28;20462;-80
2022/09/18 09:37:16;;;;;;;1.37;1.27;;;12.60;99.90;;;;;;4987298;28;20429;-81
2022/09/18 09:40:31;;;;;;;1.60;1.50;;;12.60;99.90;;;;;;4996038;28;20438;-80
2022/09/18 09:43:29;;;;;;;1.90;1.57;;;12.70;99.90;;;;;;4963385;29;20467;-80
2022/09/18 09:46:43;;;;;;;2.50;1.67;;;12.70;99.90;;;;;;4963342;29;20457;-80
2022/09/18 09:49:35;;;;;;;2.60;1.60;;;12.70;99.90;;;;;;4944634;29;20825;-79
2022/09/18 09:52:24;;;;;;;2.47;1.50;;;12.70;99.90;;;;;;4958233;29;20410;-79
2022/09/18 09:55:37;;;;;;;3.27;1.57;;;12.60;99.90;;;;;;4930175;28;20472;-80
2022/09/18 09:58:50;;;;;;;1.83;1.60;;;12.80;99.90;;;;;;5001037;28;20412;-80
2022/09/18 10:01:40;;;;;;;1.93;1.53;;;12.90;99.90;;;;;;4987256;28;21020;-81
2022/09/18 10:04:50;;;;;;;2.30;1.70;;;13.00;99.90;;;;;;4981577;28;20971;-80
2022/09/18 10:07:48;;;;;;;2.67;1.30;;;13.10;99.90;;;;;;4954786;28;20472;-80
2022/09/18 10:10:44;;;;;;;1.57;1.30;;;13.00;99.90;;;;;;4954450;28;20434;-81
2022/09/18 10:13:39;;;;;;;1.40;1.30;;;12.90;99.90;;;;;;4968405;28;20449;-80
2022/09/18 10:16:35;;;;;;;1.17;1.07;;;12.80;99.90;;;;;;4968062;28;20413;-81
2022/09/18 10:19:22;;;;;;;3.37;1.60;;;13.00;99.90;;;;;;4951397;28;20460;-80
2022/09/18 10:22:11;;;;;;;3.63;1.43;;;13.10;99.90;;;;;;4962985;29;20430;-81
2022/09/18 10:25:26;;;;;;;2.47;1.90;;;12.90;99.90;;;;;;4981533;28;20831;-80
2022/09/18 10:28:14;;;;;;;1.30;1.20;;;12.90;99.90;;;;;;4969172;28;20422;-80
2022/09/18 10:31:05;;;;;;;1.13;1.03;;;13.00;99.90;;;;;;4968420;28;20450;-80
2022/09/18 10:33:51;;;;;;;1.63;1.10;;;12.80;99.90;;;;;;4981965;28;20386;-80
2022/09/18 10:36:37;;;;;;;3.77;1.40;;;13.00;99.90;;;;;;4987758;28;20437;-80
2022/09/18 10:39:30;;;;;;;1.40;1.30;;;13.10;99.90;;;;;;5004050;28;20464;-81
2022/09/18 10:42:17;;;;;;;1.20;1.10;;;13.10;99.90;;;;;;4952682;29;20427;-78
2022/09/18 10:45:05;;;;;;;3.10;1.30;;;12.90;99.90;;;;;;4966595;29;20431;-80
2022/09/18 10:48:00;;;;;;;1.30;1.20;;;13.20;99.90;;;;;;4939693;29;20394;-80
2022/09/18 10:50:54;;;;;;;1.27;1.17;;;13.40;99.90;;;;;;4949888;29;20397;-80
2022/09/18 10:53:41;;;;;;;2.20;1.20;;;13.50;99.90;;;;;;4966999;28;20436;-80
2022/09/18 10:56:26;;;;;;;1.23;1.13;;;13.50;99.90;;;;;;5003948;28;20435;-80
2022/09/18 10:59:30;;;;;;;1.77;1.30;;;13.60;99.90;;;;;;4991282;28;20416;-81
2022/09/18 11:02:19;;;;;;;1.50;1.40;;;13.60;99.90;;;;;;4970944;28;20425;-80
2022/09/18 11:05:16;;;;;;;1.10;1.00;;;13.70;99.90;;;;;;4983977;28;20449;-80
2022/09/18 11:08:06;;;;;;;2.70;1.77;;;13.80;99.90;;;;;;4951891;29;20918;-80
2022/09/18 11:11:08;;;;;;;3.37;1.30;;;13.80;99.90;;;;;;4939073;29;20390;-80
2022/09/18 11:14:02;;;;;;;1.30;1.20;;;13.70;99.90;;;;;;4938426;29;20528;-80
2022/09/18 11:16:51;;;;;;;1.40;1.20;;;13.50;99.90;;;;;;4870234;29;20402;-79
2022/09/18 11:19:39;;;;;;;1.40;1.30;;;13.80;99.90;;;;;;4847003;29;20508;-80
2022/09/18 11:22:36;;;;;;;2.07;1.60;;;13.60;99.90;;;;;;4848378;29;20417;-81
2022/09/18 11:25:28;;;;;;;1.53;1.30;;;13.40;99.90;;;;;;4846522;29;20481;-81
2022/09/18 11:28:26;;;;;;;1.77;1.50;;;13.60;99.90;;;;;;4857816;29;20438;-80
2022/09/18 11:31:15;;;;;;;2.73;1.40;;;13.70;99.90;;;;;;4839374;29;20546;-80
2022/09/18 11:34:00;;;;;;;2.03;1.30;;;13.80;99.90;;;;;;4873731;29;20422;-81
2022/09/18 11:36:48;;;;;;;1.50;1.27;;;13.80;99.90;;;;;;4901587;29;20406;-80
2022/09/18 11:39:40;;;;;;;2.20;2.00;;;13.70;99.90;;;;;;4901436;29;20393;-81
2022/09/18 11:42:28;;;;;;;1.90;1.37;;;13.70;99.90;;;;;;4901501;29;20403;-80
2022/09/18 11:45:41;;;;;;;2.20;1.33;;;13.70;99.90;;;;;;4900382;29;20385;-80
2022/09/18 11:48:34;;;;;;;1.40;1.30;;;13.40;99.90;;;;;;4956202;29;20423;-79
2022/09/18 11:51:27;;;;;;;1.20;1.10;;;13.50;99.90;;;;;;4989696;28;20392;-80
2022/09/18 11:54:32;;;;;;;2.10;1.40;;;13.40;99.90;;;;;;4989581;28;20972;-81
2022/09/18 11:57:35;;;;;;;1.10;1.00;;;13.30;99.90;;;;;;4969943;28;20429;-80
2022/09/18 12:00:22;;;;;;;2.93;0.97;;;13.30;99.90;;;;;;4969196;28;20423;-80
2022/09/18 12:03:33;;;;;;;1.10;1.00;;;13.20;99.90;;;;;;5000450;28;20459;-80
2022/09/18 12:06:41;;;;;;;2.13;1.30;;;13.20;99.90;;;;;;5007986;28;20455;-80
2022/09/18 12:09:49;;;;;;;1.37;1.27;;;13.20;99.90;;;;;;5007693;28;20467;-81
2022/09/18 12:12:40;;;;;;;1.10;1.00;;;13.20;99.90;;;;;;5008077;28;20459;-80
2022/09/18 12:15:33;;;;;;;1.27;1.17;;;13.30;99.90;;;;;;5022097;28;20388;-80
2022/09/18 12:18:27;;;;;;;2.47;1.23;;;13.30;99.90;;;;;;5014110;28;20427;-78
2022/09/18 12:21:18;;;;;;;1.30;1.20;;;13.20;99.90;;;;;;5037419;28;20515;-78
2022/09/18 12:24:03;;;;;;;2.10;1.40;;;13.40;99.90;;;;;;5037646;28;20418;-79
2022/09/18 12:26:58;;;;;;;5.53;1.60;;;13.50;99.90;;;;;;5037860;28;20481;-78
2022/09/18 12:30:09;;;;;;;1.83;1.37;;;13.60;99.90;;;;;;5071686;28;20452;-78
2022/09/18 12:33:13;;;;;;;1.90;1.80;;;13.80;99.90;;;;;;5084935;28;20453;-79
2022/09/18 12:36:36;;;;;;;3.00;1.67;;;13.90;99.90;;;;;;5071412;28;20449;-77
2022/09/18 12:39:51;;;;;;;1.30;1.20;;;13.50;99.90;;;;;;5067555;28;20480;-79
2022/09/18 12:43:05;;;;;;;1.50;1.40;;;13.60;99.90;;;;;;5024875;28;20499;-80
2022/09/18 12:46:06;;;;;;;1.50;1.40;;;13.80;99.90;;;;;;5013767;28;20459;-80
2022/09/18 12:49:29;;;;;;;2.13;1.67;;;13.70;99.90;;;;;;5010226;28;20956;-79
2022/09/18 12:52:40;;;;;;;1.50;1.40;;;13.80;99.90;;;;;;5010700;28;20519;-80
2022/09/18 12:55:45;;;;;;;1.57;1.47;;;13.90;99.90;;;;;;5026015;28;20428;-80
2022/09/18 12:58:57;;;;;;;3.43;2.10;;;13.90;99.90;;;;;;5023473;28;20440;-79
2022/09/18 13:01:53;;;;;;;1.57;1.47;;;13.80;99.90;;;;;;5029391;28;20430;-79
2022/09/18 13:04:47;;;;;;;2.50;1.90;;;13.70;99.90;;;;;;5014432;28;20450;-80
2022/09/18 13:07:42;;;;;;;5.90;1.60;;;13.80;99.90;;;;;;5028247;28;20550;-80
2022/09/18 13:10:37;;;;;;;1.60;1.50;;;13.80;99.90;;;;;;5029347;28;20835;-80
2022/09/18 13:13:45;;;;;;;2.37;2.00;;;13.80;99.90;;;;;;5003108;28;20378;-80
2022/09/18 13:16:49;;;;;;;1.60;1.50;;;13.80;99.90;;;;;;5042664;28;20438;-80
2022/09/18 13:19:41;;;;;;;2.50;1.40;;;13.70;99.90;;;;;;5016407;28;20807;-80
2022/09/18 13:22:34;;;;;;;1.50;1.40;;;13.80;99.90;;;;;;5028067;28;20577;-79
2022/09/18 13:25:25;;;;;;;1.40;1.30;;;13.80;99.90;;;;;;4994530;28;20439;-80
2022/09/18 13:28:14;;;;;;;1.40;1.30;;;13.70;99.90;;;;;;5014616;28;20411;-80
2022/09/18 13:31:15;;;;;;;1.77;1.67;;;13.70;99.90;;;;;;5014455;28;20447;-80
2022/09/18 13:34:07;;;;;;;2.80;1.50;;;13.70;99.90;;;;;;5061603;28;20925;-80
2022/09/18 13:37:03;;;;;;;1.97;1.77;;;13.80;99.90;;;;;;5040532;28;20407;-80
2022/09/18 13:40:00;;;;;;;2.13;1.20;;;13.80;99.90;;;;;;5047025;28;20486;-78
2022/09/18 13:42:47;;;;;;;3.47;1.80;;;13.80;99.90;;;;;;4984628;28;20400;-80
2022/09/18 13:45:37;;;;;;;1.77;1.63;;;13.80;99.90;;;;;;5045258;28;20910;-80
2022/09/18 13:48:28;;;;;;;1.87;1.60;;;13.70;99.90;;;;;;5018263;28;20449;-80
2022/09/18 13:51:25;;;;;;;2.73;1.53;;;13.80;99.90;;;;;;5015093;28;20406;-79
2022/09/18 13:54:24;;;;;;;5.00;1.73;;;13.80;99.90;;;;;;5042510;28;20422;-80
2022/09/18 13:57:18;;;;;;;1.40;1.30;;;13.80;99.90;;;;;;5007934;28;20434;-80
2022/09/18 14:00:44;;;;;;;6.70;1.90;;;13.80;99.90;;;;;;4980451;28;20468;-80
2022/09/18 14:03:45;;;;;;;2.10;2.00;;;13.70;99.90;;;;;;4982612;28;20474;-80
2022/09/18 14:06:44;;;;;;;8.70;1.50;;;13.60;99.90;;;;;;4983393;28;20545;-80
2022/09/18 14:10:04;;;;;;;1.40;1.30;;;13.60;99.90;;;;;;4951103;29;20426;-79
2022/09/18 14:13:23;;;;;;;4.33;1.70;;;13.40;99.90;;;;;;4945910;29;20415;-79
2022/09/18 14:16:43;;;;;;;3.10;1.40;;;13.50;99.90;;;;;;4959174;29;20455;-80
2022/09/18 14:20:06;;;;;;;3.53;1.57;;;13.50;99.90;;;;;;4927422;29;20464;-79
2022/09/18 14:22:51;;;;;;;1.80;1.57;;;13.40;99.90;;;;;;4952272;29;20422;-80
2022/09/18 14:25:44;;;;;;;1.33;1.23;;;13.40;99.90;;;;;;4946974;29;20408;-77
2022/09/18 14:28:36;;;;;;;5.17;1.63;;;13.30;99.90;;;;;;4908710;29;20492;-76
2022/09/18 14:31:36;;;;;;;1.30;1.20;;;13.40;99.90;;;;;;4909178;29;20381;-79
2022/09/18 14:34:28;;;;;;;1.63;1.33;;;13.30;99.90;;;;;;4897107;29;20477;-77
2022/09/18 14:37:25;;;;;;;4.00;1.60;;;13.40;99.90;;;;;;4885602;29;20459;-76
2022/09/18 14:40:21;;;;;;;1.50;1.40;;;13.30;99.90;;;;;;4897389;29;20418;-79
2022/09/18 14:43:16;;;;;;;1.97;1.87;;;13.20;99.90;;;;;;4888420;29;20421;-77
2022/09/18 14:46:03;;;;;;;1.60;1.50;;;13.20;99.90;;;;;;4903134;29;20458;-77
2022/09/18 14:48:48;;;;;;;1.90;1.67;;;13.20;99.90;;;;;;4912788;29;20441;-77
2022/09/18 14:51:32;;;;;;;2.50;2.30;;;13.20;99.90;;;;;;4945017;29;20570;-79
2022/09/18 14:54:24;;;;;;;1.83;1.73;;;13.20;99.90;;;;;;4919752;29;20456;-79
2022/09/18 14:57:13;;;;;;;1.93;1.80;;;13.20;99.90;;;;;;4957863;28;20447;-79